sensor_id;sensor_type;location;lat;lon;timestamp;temperature;humidity
52187;DHT22;38161;53.020;6.598;2023-11-19T00:00:44;10.40;99.90
52187;DHT22;38161;53.020;6.598;2023-11-19T00:03:10;10.50;99.90
52187;DHT22;38161;53.020;6.598;2023-11-19T00:05:36;10.50;99.90
52187;DHT22;38161;53.020;6.598;2023-11-19T00:08:02;10.60;99.90
52187;DHT22;38161;53.020;6.598;2023-11-19T00:10:28;10.70;99.90
52187;DHT22;38161;53.020;6.598;2023-11-19T00:12:54;10.70;99.90
52187;DHT22;38161;53.020;6.598;2023-11-19T00:15:22;10.70;99.90
52187;DHT22;38161;53.020;6.598;2023-11-19T00:17:50;10.70;99.90
52187;DHT22;38161;53.020;6.598;2023-11-19T00:20:17;10.80;99.90
52187;DHT22;38161;53.020;6.598;2023-11-19T00:22:44;10.80;99.90
52187;DHT22;38161;53.020;6.598;2023-11-19T00:25:14;10.80;99.90
52187;DHT22;38161;53.020;6.598;2023-11-19T00:27:40;10.80;99.90
52187;DHT22;38161;53.020;6.598;2023-11-19T00:30:10;10.90;99.90
52187;DHT22;38161;53.020;6.598;2023-11-19T00:32:36;10.90;99.90
52187;DHT22;38161;53.020;6.598;2023-11-19T00:35:05;11.00;99.90
52187;DHT22;38161;53.020;6.598;2023-11-19T00:37:32;11.00;99.90
52187;DHT22;38161;53.020;6.598;2023-11-19T00:39:58;11.00;99.90
52187;DHT22;38161;53.020;6.598;2023-11-19T00:42:24;11.00;99.90
52187;DHT22;38161;53.020;6.598;2023-11-19T00:44:50;11.10;99.90
52187;DHT22;38161;53.020;6.598;2023-11-19T00:47:17;11.10;99.90
52187;DHT22;38161;53.020;6.598;2023-11-19T00:49:47;11.10;99.90
52187;DHT22;38161;53.020;6.598;2023-11-19T00:52:15;11.10;99.90
52187;DHT22;38161;53.020;6.598;2023-11-19T00:54:41;11.20;99.90
52187;DHT22;38161;53.020;6.598;2023-11-19T00:57:06;11.20;99.90
52187;DHT22;38161;53.020;6.598;2023-11-19T00:59:33;11.20;99.90
52187;DHT22;38161;53.020;6.598;2023-11-19T01:01:59;11.30;99.90
52187;DHT22;38161;53.020;6.598;2023-11-19T01:04:29;11.30;99.90
52187;DHT22;38161;53.020;6.598;2023-11-19T01:06:55;11.30;99.90
52187;DHT22;38161;53.020;6.598;2023-11-19T01:09:21;11.30;99.90
52187;DHT22;38161;53.020;6.598;2023-11-19T01:11:47;11.40;99.90
52187;DHT22;38161;53.020;6.598;2023-11-19T01:14:13;11.40;99.90
52187;DHT22;38161;53.020;6.598;2023-11-19T01:16:39;11.40;99.90
52187;DHT22;38161;53.020;6.598;2023-11-19T01:19:05;11.40;99.90
52187;DHT22;38161;53.020;6.598;2023-11-19T01:21:31;11.40;99.90
52187;DHT22;38161;53.020;6.598;2023-11-19T01:24:00;11.40;99.90
52187;DHT22;38161;53.020;6.598;2023-11-19T01:26:26;11.40;99.90
52187;DHT22;38161;53.020;6.598;2023-11-19T01:28:52;11.40;99.90
52187;DHT22;38161;53.020;6.598;2023-11-19T01:31:19;11.40;99.90
52187;DHT22;38161;53.020;6.598;2023-11-19T01:33:46;11.40;99.90
52187;DHT22;38161;53.020;6.598;2023-11-19T01:36:15;11.50;99.90
52187;DHT22;38161;53.020;6.598;2023-11-19T01:38:41;11.50;99.90
52187;DHT22;38161;53.020;6.598;2023-11-19T01:41:07;11.50;99.90
52187;DHT22;38161;53.020;6.598;2023-11-19T01:43:39;11.50;99.90
52187;DHT22;38161;53.020;6.598;2023-11-19T01:46:07;11.50;99.90
52187;DHT22;38161;53.020;6.598;2023-11-19T01:48:42;11.50;99.90
52187;DHT22;38161;53.020;6.598;2023-11-19T01:51:09;11.50;99.90
52187;DHT22;38161;53.020;6.598;2023-11-19T01:53:36;11.50;99.90
52187;DHT22;38161;53.020;6.598;2023-11-19T01:56:03;11.50;99.90
52187;DHT22;38161;53.020;6.598;2023-11-19T01:58:30;11.50;99.90
52187;DHT22;38161;53.020;6.598;2023-11-19T02:00:56;11.50;99.90
52187;DHT22;38161;53.020;6.598;2023-11-19T02:03:23;11.50;99.90
52187;DHT22;38161;53.020;6.598;2023-11-19T02:05:51;11.40;99.90
52187;DHT22;38161;53.020;6.598;2023-11-19T02:08:18;11.40;99.90
52187;DHT22;38161;53.020;6.598;2023-11-19T02:10:45;11.50;99.90
52187;DHT22;38161;53.020;6.598;2023-11-19T02:13:11;11.50;99.90
52187;DHT22;38161;53.020;6.598;2023-11-19T02:15:41;11.50;99.90
52187;DHT22;38161;53.020;6.598;2023-11-19T02:18:23;11.50;99.90
52187;DHT22;38161;53.020;6.598;2023-11-19T02:20:52;11.50;99.90
52187;DHT22;38161;53.020;6.598;2023-11-19T02:23:20;11.40;99.90
52187;DHT22;38161;53.020;6.598;2023-11-19T02:28:33;11.50;99.90
52187;DHT22;38161;53.020;6.598;2023-11-19T02:30:59;11.40;99.90
52187;DHT22;38161;53.020;6.598;2023-11-19T02:33:25;11.50;99.90
52187;DHT22;38161;53.020;6.598;2023-11-19T02:35:51;11.40;99.90
52187;DHT22;38161;53.020;6.598;2023-11-19T02:38:17;11.40;99.90
52187;DHT22;38161;53.020;6.598;2023-11-19T02:40:43;11.40;99.90
52187;DHT22;38161;53.020;6.598;2023-11-19T02:43:09;11.40;99.90
52187;DHT22;38161;53.020;6.598;2023-11-19T02:45:35;11.50;99.90
52187;DHT22;38161;53.020;6.598;2023-11-19T02:48:01;11.40;99.90
52187;DHT22;38161;53.020;6.598;2023-11-19T02:50:28;11.40;99.90
52187;DHT22;38161;53.020;6.598;2023-11-19T02:52:55;11.50;99.90
52187;DHT22;38161;53.020;6.598;2023-11-19T02:55:22;11.50;99.90
52187;DHT22;38161;53.020;6.598;2023-11-19T02:57:50;11.50;99.90
52187;DHT22;38161;53.020;6.598;2023-11-19T03:00:19;11.50;99.90
52187;DHT22;38161;53.020;6.598;2023-11-19T03:02:49;11.40;99.90
52187;DHT22;38161;53.020;6.598;2023-11-19T03:05:25;11.50;99.90
52187;DHT22;38161;53.020;6.598;2023-11-19T03:07:51;11.50;99.90
52187;DHT22;38161;53.020;6.598;2023-11-19T03:10:17;11.50;99.90
52187;DHT22;38161;53.020;6.598;2023-11-19T03:12:44;11.50;99.90
52187;DHT22;38161;53.020;6.598;2023-11-19T03:15:13;11.40;99.90
52187;DHT22;38161;53.020;6.598;2023-11-19T03:17:44;11.50;99.90
52187;DHT22;38161;53.020;6.598;2023-11-19T03:20:11;11.40;99.90
52187;DHT22;38161;53.020;6.598;2023-11-19T03:22:43;11.50;99.90
52187;DHT22;38161;53.020;6.598;2023-11-19T03:25:12;11.40;99.90
52187;DHT22;38161;53.020;6.598;2023-11-19T03:27:39;11.40;99.90
52187;DHT22;38161;53.020;6.598;2023-11-19T03:30:08;11.40;99.90
52187;DHT22;38161;53.020;6.598;2023-11-19T03:32:36;11.40;99.90
52187;DHT22;38161;53.020;6.598;2023-11-19T03:35:02;11.40;99.90
52187;DHT22;38161;53.020;6.598;2023-11-19T03:37:30;11.40;99.90
52187;DHT22;38161;53.020;6.598;2023-11-19T03:39:57;11.40;99.90
52187;DHT22;38161;53.020;6.598;2023-11-19T03:42:26;11.40;99.90
52187;DHT22;38161;53.020;6.598;2023-11-19T03:44:53;11.40;99.90
52187;DHT22;38161;53.020;6.598;2023-11-19T03:47:19;11.40;99.90
52187;DHT22;38161;53.020;6.598;2023-11-19T03:49:49;11.40;99.90
52187;DHT22;38161;53.020;6.598;2023-11-19T03:52:16;11.50;99.90
52187;DHT22;38161;53.020;6.598;2023-11-19T03:54:42;11.40;99.90
52187;DHT22;38161;53.020;6.598;2023-11-19T03:57:09;11.40;99.90
52187;DHT22;38161;53.020;6.598;2023-11-19T03:59:38;11.50;99.90
52187;DHT22;38161;53.020;6.598;2023-11-19T04:02:03;11.50;99.90
52187;DHT22;38161;53.020;6.598;2023-11-19T04:04:29;11.40;99.90
52187;DHT22;38161;53.020;6.598;2023-11-19T04:06:56;11.40;99.90
52187;DHT22;38161;53.020;6.598;2023-11-19T04:09:22;11.40;99.90
52187;DHT22;38161;53.020;6.598;2023-11-19T04:11:48;11.40;99.90
52187;DHT22;38161;53.020;6.598;2023-11-19T04:14:14;11.30;99.90
52187;DHT22;38161;53.020;6.598;2023-11-19T04:16:41;11.30;99.90
52187;DHT22;38161;53.020;6.598;2023-11-19T04:19:06;11.30;99.90
52187;DHT22;38161;53.020;6.598;2023-11-19T04:21:33;11.30;99.90
52187;DHT22;38161;53.020;6.598;2023-11-19T04:23:59;11.30;99.90
52187;DHT22;38161;53.020;6.598;2023-11-19T04:26:26;11.30;99.90
52187;DHT22;38161;53.020;6.598;2023-11-19T04:28:52;11.30;99.90
52187;DHT22;38161;53.020;6.598;2023-11-19T04:31:18;11.40;99.90
52187;DHT22;38161;53.020;6.598;2023-11-19T04:33:44;11.30;99.90
52187;DHT22;38161;53.020;6.598;2023-11-19T04:36:13;11.30;99.90
52187;DHT22;38161;53.020;6.598;2023-11-19T04:38:44;11.30;99.90
52187;DHT22;38161;53.020;6.598;2023-11-19T04:41:11;11.20;99.90
52187;DHT22;38161;53.020;6.598;2023-11-19T04:43:37;11.30;99.90
52187;DHT22;38161;53.020;6.598;2023-11-19T04:46:06;11.20;99.90
52187;DHT22;38161;53.020;6.598;2023-11-19T04:48:32;11.20;99.90
52187;DHT22;38161;53.020;6.598;2023-11-19T04:50:58;11.20;99.90
52187;DHT22;38161;53.020;6.598;2023-11-19T04:53:24;11.20;99.90
52187;DHT22;38161;53.020;6.598;2023-11-19T04:55:50;11.10;99.90
52187;DHT22;38161;53.020;6.598;2023-11-19T04:58:16;11.10;99.90
52187;DHT22;38161;53.020;6.598;2023-11-19T05:00:41;11.00;99.90
52187;DHT22;38161;53.020;6.598;2023-11-19T05:03:07;11.00;99.90
52187;DHT22;38161;53.020;6.598;2023-11-19T05:05:33;11.00;99.90
52187;DHT22;38161;53.020;6.598;2023-11-19T05:08:00;11.00;99.90
52187;DHT22;38161;53.020;6.598;2023-11-19T05:10:25;11.00;99.90
52187;DHT22;38161;53.020;6.598;2023-11-19T05:12:51;11.00;99.90
52187;DHT22;38161;53.020;6.598;2023-11-19T05:15:18;11.00;99.90
52187;DHT22;38161;53.020;6.598;2023-11-19T05:17:44;11.00;99.90
52187;DHT22;38161;53.020;6.598;2023-11-19T05:20:10;11.00;99.90
52187;DHT22;38161;53.020;6.598;2023-11-19T05:22:42;11.00;99.90
52187;DHT22;38161;53.020;6.598;2023-11-19T05:25:08;11.00;99.90
52187;DHT22;38161;53.020;6.598;2023-11-19T05:27:35;11.00;99.90
52187;DHT22;38161;53.020;6.598;2023-11-19T05:30:03;11.00;99.90
52187;DHT22;38161;53.020;6.598;2023-11-19T05:32:29;11.00;99.90
52187;DHT22;38161;53.020;6.598;2023-11-19T05:34:55;11.00;99.90
52187;DHT22;38161;53.020;6.598;2023-11-19T05:37:21;11.00;99.90
52187;DHT22;38161;53.020;6.598;2023-11-19T05:39:47;11.00;99.90
52187;DHT22;38161;53.020;6.598;2023-11-19T05:42:13;11.00;99.90
52187;DHT22;38161;53.020;6.598;2023-11-19T05:44:39;11.00;99.90
52187;DHT22;38161;53.020;6.598;2023-11-19T05:47:05;11.00;99.90
52187;DHT22;38161;53.020;6.598;2023-11-19T05:49:31;11.00;99.90
52187;DHT22;38161;53.020;6.598;2023-11-19T05:51:57;10.90;99.90
52187;DHT22;38161;53.020;6.598;2023-11-19T05:54:23;10.90;99.90
52187;DHT22;38161;53.020;6.598;2023-11-19T05:56:49;10.90;99.90
52187;DHT22;38161;53.020;6.598;2023-11-19T05:59:15;11.00;99.90
52187;DHT22;38161;53.020;6.598;2023-11-19T06:01:46;11.00;99.90
52187;DHT22;38161;53.020;6.598;2023-11-19T06:04:12;11.00;99.90
52187;DHT22;38161;53.020;6.598;2023-11-19T06:06:38;11.00;99.90
52187;DHT22;38161;53.020;6.598;2023-11-19T06:09:05;11.00;99.90
52187;DHT22;38161;53.020;6.598;2023-11-19T06:11:33;11.00;99.90
52187;DHT22;38161;53.020;6.598;2023-11-19T06:13:59;11.00;99.90
52187;DHT22;38161;53.020;6.598;2023-11-19T06:16:25;10.90;99.90
52187;DHT22;38161;53.020;6.598;2023-11-19T06:18:52;10.90;99.90
52187;DHT22;38161;53.020;6.598;2023-11-19T06:21:19;10.90;99.90
52187;DHT22;38161;53.020;6.598;2023-11-19T06:23:45;10.90;99.90
52187;DHT22;38161;53.020;6.598;2023-11-19T06:26:12;10.90;99.90
52187;DHT22;38161;53.020;6.598;2023-11-19T06:28:39;10.80;99.90
52187;DHT22;38161;53.020;6.598;2023-11-19T06:31:05;10.90;99.90
52187;DHT22;38161;53.020;6.598;2023-11-19T06:33:31;10.80;99.90
52187;DHT22;38161;53.020;6.598;2023-11-19T06:35:59;10.80;99.90
52187;DHT22;38161;53.020;6.598;2023-11-19T06:38:25;10.80;99.90
52187;DHT22;38161;53.020;6.598;2023-11-19T06:40:51;10.80;99.90
52187;DHT22;38161;53.020;6.598;2023-11-19T06:43:17;10.80;99.90
52187;DHT22;38161;53.020;6.598;2023-11-19T06:45:43;10.80;99.90
52187;DHT22;38161;53.020;6.598;2023-11-19T06:48:09;10.80;99.90
52187;DHT22;38161;53.020;6.598;2023-11-19T06:50:35;10.80;99.90
52187;DHT22;38161;53.020;6.598;2023-11-19T06:53:01;10.80;99.90
52187;DHT22;38161;53.020;6.598;2023-11-19T06:55:27;10.80;99.90
52187;DHT22;38161;53.020;6.598;2023-11-19T06:57:56;10.80;99.90
52187;DHT22;38161;53.020;6.598;2023-11-19T07:00:24;10.80;99.90
52187;DHT22;38161;53.020;6.598;2023-11-19T07:02:50;10.80;99.90
52187;DHT22;38161;53.020;6.598;2023-11-19T07:05:17;10.80;99.90
52187;DHT22;38161;53.020;6.598;2023-11-19T07:07:43;10.70;99.90
52187;DHT22;38161;53.020;6.598;2023-11-19T07:10:09;10.70;99.90
52187;DHT22;38161;53.020;6.598;2023-11-19T07:12:35;10.80;99.90
52187;DHT22;38161;53.020;6.598;2023-11-19T07:15:02;10.80;99.90
52187;DHT22;38161;53.020;6.598;2023-11-19T07:17:30;10.90;99.90
52187;DHT22;38161;53.020;6.598;2023-11-19T07:19:56;10.80;99.90
52187;DHT22;38161;53.020;6.598;2023-11-19T07:22:25;10.80;99.90
52187;DHT22;38161;53.020;6.598;2023-11-19T07:24:58;10.80;99.90
52187;DHT22;38161;53.020;6.598;2023-11-19T07:27:24;10.90;99.90
52187;DHT22;38161;53.020;6.598;2023-11-19T07:29:51;10.90;99.90
52187;DHT22;38161;53.020;6.598;2023-11-19T07:32:17;10.90;99.90
52187;DHT22;38161;53.020;6.598;2023-11-19T07:34:43;10.90;99.90
52187;DHT22;38161;53.020;6.598;2023-11-19T07:37:09;10.80;99.90
52187;DHT22;38161;53.020;6.598;2023-11-19T07:39:35;10.80;99.90
52187;DHT22;38161;53.020;6.598;2023-11-19T07:42:03;10.80;99.90
52187;DHT22;38161;53.020;6.598;2023-11-19T07:44:29;10.80;99.90
52187;DHT22;38161;53.020;6.598;2023-11-19T07:46:55;10.80;99.90
52187;DHT22;38161;53.020;6.598;2023-11-19T07:49:21;10.80;99.90
52187;DHT22;38161;53.020;6.598;2023-11-19T07:51:47;10.80;99.90
52187;DHT22;38161;53.020;6.598;2023-11-19T07:54:13;10.80;99.90
52187;DHT22;38161;53.020;6.598;2023-11-19T07:56:39;10.80;99.90
52187;DHT22;38161;53.020;6.598;2023-11-19T07:59:05;10.80;99.90
52187;DHT22;38161;53.020;6.598;2023-11-19T08:01:32;10.80;99.90
52187;DHT22;38161;53.020;6.598;2023-11-19T08:03:58;10.80;99.90
52187;DHT22;38161;53.020;6.598;2023-11-19T08:06:24;10.80;99.90
52187;DHT22;38161;53.020;6.598;2023-11-19T08:09:03;10.80;99.90
52187;DHT22;38161;53.020;6.598;2023-11-19T08:11:33;10.80;99.90
52187;DHT22;38161;53.020;6.598;2023-11-19T08:13:59;10.80;99.90
52187;DHT22;38161;53.020;6.598;2023-11-19T08:16:25;10.80;99.90
52187;DHT22;38161;53.020;6.598;2023-11-19T08:18:51;10.80;99.90
52187;DHT22;38161;53.020;6.598;2023-11-19T08:21:17;10.80;99.90
52187;DHT22;38161;53.020;6.598;2023-11-19T08:23:43;10.90;99.90
52187;DHT22;38161;53.020;6.598;2023-11-19T08:26:09;10.90;99.90
52187;DHT22;38161;53.020;6.598;2023-11-19T08:28:36;10.90;99.90
52187;DHT22;38161;53.020;6.598;2023-11-19T08:31:04;10.90;99.90
52187;DHT22;38161;53.020;6.598;2023-11-19T08:33:30;10.90;99.90
52187;DHT22;38161;53.020;6.598;2023-11-19T08:35:57;10.90;99.90
52187;DHT22;38161;53.020;6.598;2023-11-19T08:38:24;11.00;99.90
52187;DHT22;38161;53.020;6.598;2023-11-19T08:40:51;11.00;99.90
52187;DHT22;38161;53.020;6.598;2023-11-19T08:43:17;11.00;99.90
52187;DHT22;38161;53.020;6.598;2023-11-19T08:45:44;10.90;99.90
52187;DHT22;38161;53.020;6.598;2023-11-19T08:48:10;10.90;99.90
52187;DHT22;38161;53.020;6.598;2023-11-19T08:50:36;10.90;99.90
52187;DHT22;38161;53.020;6.598;2023-11-19T08:53:02;10.80;99.90
52187;DHT22;38161;53.020;6.598;2023-11-19T08:55:32;10.80;99.90
52187;DHT22;38161;53.020;6.598;2023-11-19T08:57:58;10.70;99.90
52187;DHT22;38161;53.020;6.598;2023-11-19T09:00:24;10.70;99.90
52187;DHT22;38161;53.020;6.598;2023-11-19T09:02:52;10.70;99.90
52187;DHT22;38161;53.020;6.598;2023-11-19T09:05:18;10.70;99.90
52187;DHT22;38161;53.020;6.598;2023-11-19T09:07:44;10.70;99.90
52187;DHT22;38161;53.020;6.598;2023-11-19T09:10:10;10.70;99.90
52187;DHT22;38161;53.020;6.598;2023-11-19T09:12:37;10.70;99.90
52187;DHT22;38161;53.020;6.598;2023-11-19T09:15:03;10.70;99.90
52187;DHT22;38161;53.020;6.598;2023-11-19T09:17:29;10.70;99.90
52187;DHT22;38161;53.020;6.598;2023-11-19T09:19:56;10.80;99.90
52187;DHT22;38161;53.020;6.598;2023-11-19T09:22:22;10.80;99.90
52187;DHT22;38161;53.020;6.598;2023-11-19T09:24:48;10.80;99.90
52187;DHT22;38161;53.020;6.598;2023-11-19T09:27:14;10.80;99.90
52187;DHT22;38161;53.020;6.598;2023-11-19T09:29:42;10.90;99.90
52187;DHT22;38161;53.020;6.598;2023-11-19T09:32:08;10.90;99.90
52187;DHT22;38161;53.020;6.598;2023-11-19T09:34:34;10.90;99.90
52187;DHT22;38161;53.020;6.598;2023-11-19T09:37:00;10.90;99.90
52187;DHT22;38161;53.020;6.598;2023-11-19T09:39:27;10.90;99.90
52187;DHT22;38161;53.020;6.598;2023-11-19T09:41:53;11.00;99.90
52187;DHT22;38161;53.020;6.598;2023-11-19T09:44:19;11.00;99.90
52187;DHT22;38161;53.020;6.598;2023-11-19T09:46:45;11.00;99.90
52187;DHT22;38161;53.020;6.598;2023-11-19T09:49:13;11.00;99.90
52187;DHT22;38161;53.020;6.598;2023-11-19T09:51:40;11.00;99.90
52187;DHT22;38161;53.020;6.598;2023-11-19T09:54:07;11.00;99.90
52187;DHT22;38161;53.020;6.598;2023-11-19T09:56:36;11.00;99.90
52187;DHT22;38161;53.020;6.598;2023-11-19T09:59:03;11.00;99.90
52187;DHT22;38161;53.020;6.598;2023-11-19T10:01:29;11.00;99.90
52187;DHT22;38161;53.020;6.598;2023-11-19T10:03:57;11.00;99.90
52187;DHT22;38161;53.020;6.598;2023-11-19T10:06:25;11.10;99.90
52187;DHT22;38161;53.020;6.598;2023-11-19T10:08:52;11.10;99.90
52187;DHT22;38161;53.020;6.598;2023-11-19T10:11:18;11.10;99.90
52187;DHT22;38161;53.020;6.598;2023-11-19T10:13:44;11.10;99.90
52187;DHT22;38161;53.020;6.598;2023-11-19T10:16:13;11.10;99.90
52187;DHT22;38161;53.020;6.598;2023-11-19T10:18:46;11.10;99.90
52187;DHT22;38161;53.020;6.598;2023-11-19T10:21:13;11.10;99.90
52187;DHT22;38161;53.020;6.598;2023-11-19T10:23:49;11.20;99.90
52187;DHT22;38161;53.020;6.598;2023-11-19T10:26:18;11.30;99.90
52187;DHT22;38161;53.020;6.598;2023-11-19T10:28:46;11.30;99.90
52187;DHT22;38161;53.020;6.598;2023-11-19T10:31:16;11.30;99.90
52187;DHT22;38161;53.020;6.598;2023-11-19T10:33:43;11.20;99.90
52187;DHT22;38161;53.020;6.598;2023-11-19T10:36:11;11.30;99.90
52187;DHT22;38161;53.020;6.598;2023-11-19T10:38:38;11.20;99.90
52187;DHT22;38161;53.020;6.598;2023-11-19T10:41:04;11.20;99.90
52187;DHT22;38161;53.020;6.598;2023-11-19T10:43:31;11.20;99.90
52187;DHT22;38161;53.020;6.598;2023-11-19T10:46:11;11.20;99.90
52187;DHT22;38161;53.020;6.598;2023-11-19T10:48:38;11.20;99.90
52187;DHT22;38161;53.020;6.598;2023-11-19T10:51:05;11.20;99.90
52187;DHT22;38161;53.020;6.598;2023-11-19T10:53:36;11.20;99.90
52187;DHT22;38161;53.020;6.598;2023-11-19T10:56:10;11.10;99.90
52187;DHT22;38161;53.020;6.598;2023-11-19T10:58:37;11.00;99.90
52187;DHT22;38161;53.020;6.598;2023-11-19T11:01:16;11.00;99.90
52187;DHT22;38161;53.020;6.598;2023-11-19T11:03:44;11.00;99.90
52187;DHT22;38161;53.020;6.598;2023-11-19T11:06:13;10.90;99.90
52187;DHT22;38161;53.020;6.598;2023-11-19T11:08:40;10.90;99.90
52187;DHT22;38161;53.020;6.598;2023-11-19T11:11:06;10.90;99.90
52187;DHT22;38161;53.020;6.598;2023-11-19T11:13:33;10.90;99.90
52187;DHT22;38161;53.020;6.598;2023-11-19T11:15:59;10.90;99.90
52187;DHT22;38161;53.020;6.598;2023-11-19T11:18:26;10.90;99.90
52187;DHT22;38161;53.020;6.598;2023-11-19T11:20:55;11.00;99.90
52187;DHT22;38161;53.020;6.598;2023-11-19T11:31:58;11.40;99.90
52187;DHT22;38161;53.020;6.598;2023-11-19T11:39:40;11.40;99.90
52187;DHT22;38161;53.020;6.598;2023-11-19T11:45:06;11.40;99.90
52187;DHT22;38161;53.020;6.598;2023-11-19T11:50:23;11.40;99.90
52187;DHT22;38161;53.020;6.598;2023-11-19T11:55:26;11.50;99.90
52187;DHT22;38161;53.020;6.598;2023-11-19T11:57:54;11.50;99.90
52187;DHT22;38161;53.020;6.598;2023-11-19T12:00:30;11.50;99.90
52187;DHT22;38161;53.020;6.598;2023-11-19T12:02:57;11.50;99.90
52187;DHT22;38161;53.020;6.598;2023-11-19T12:05:23;11.60;99.90
52187;DHT22;38161;53.020;6.598;2023-11-19T12:08:10;11.60;99.90
52187;DHT22;38161;53.020;6.598;2023-11-19T12:10:50;11.60;99.90
52187;DHT22;38161;53.020;6.598;2023-11-19T12:13:18;11.60;99.90
52187;DHT22;38161;53.020;6.598;2023-11-19T12:18:32;11.60;99.90
52187;DHT22;38161;53.020;6.598;2023-11-19T12:20:59;11.60;99.90
52187;DHT22;38161;53.020;6.598;2023-11-19T12:23:31;11.50;99.90
52187;DHT22;38161;53.020;6.598;2023-11-19T12:25:58;11.60;99.90
52187;DHT22;38161;53.020;6.598;2023-11-19T12:28:25;11.60;99.90
52187;DHT22;38161;53.020;6.598;2023-11-19T12:30:54;11.50;99.90
52187;DHT22;38161;53.020;6.598;2023-11-19T12:33:32;11.50;99.90
52187;DHT22;38161;53.020;6.598;2023-11-19T12:35:58;11.50;99.90
52187;DHT22;38161;53.020;6.598;2023-11-19T12:38:25;11.50;99.90
52187;DHT22;38161;53.020;6.598;2023-11-19T12:41:17;11.50;99.90
52187;DHT22;38161;53.020;6.598;2023-11-19T12:43:46;11.50;99.90
52187;DHT22;38161;53.020;6.598;2023-11-19T12:46:22;11.50;99.90
52187;DHT22;38161;53.020;6.598;2023-11-19T12:48:49;11.50;99.90
52187;DHT22;38161;53.020;6.598;2023-11-19T12:51:15;11.50;99.90
52187;DHT22;38161;53.020;6.598;2023-11-19T12:53:52;11.50;99.90
52187;DHT22;38161;53.020;6.598;2023-11-19T12:56:20;11.50;99.90
52187;DHT22;38161;53.020;6.598;2023-11-19T12:58:47;11.50;99.90
52187;DHT22;38161;53.020;6.598;2023-11-19T13:01:19;11.50;99.90
52187;DHT22;38161;53.020;6.598;2023-11-19T13:03:47;11.50;99.90
52187;DHT22;38161;53.020;6.598;2023-11-19T13:06:15;11.50;99.90
52187;DHT22;38161;53.020;6.598;2023-11-19T13:08:48;11.50;99.90
52187;DHT22;38161;53.020;6.598;2023-11-19T13:11:30;11.50;99.90
52187;DHT22;38161;53.020;6.598;2023-11-19T13:14:03;11.50;99.90
52187;DHT22;38161;53.020;6.598;2023-11-19T13:16:30;11.50;99.90
52187;DHT22;38161;53.020;6.598;2023-11-19T13:18:56;11.50;99.90
52187;DHT22;38161;53.020;6.598;2023-11-19T13:21:23;11.50;99.90
52187;DHT22;38161;53.020;6.598;2023-11-19T13:23:49;11.50;99.90
52187;DHT22;38161;53.020;6.598;2023-11-19T13:26:15;11.50;99.90
52187;DHT22;38161;53.020;6.598;2023-11-19T13:28:42;11.50;99.90
52187;DHT22;38161;53.020;6.598;2023-11-19T13:31:08;11.50;99.90
52187;DHT22;38161;53.020;6.598;2023-11-19T13:33:34;11.50;99.90
52187;DHT22;38161;53.020;6.598;2023-11-19T13:36:01;11.40;99.90
52187;DHT22;38161;53.020;6.598;2023-11-19T13:38:34;11.40;99.90
52187;DHT22;38161;53.020;6.598;2023-11-19T13:41:04;11.40;99.90
52187;DHT22;38161;53.020;6.598;2023-11-19T13:43:31;11.40;99.90
52187;DHT22;38161;53.020;6.598;2023-11-19T13:45:57;11.40;99.90
52187;DHT22;38161;53.020;6.598;2023-11-19T13:48:24;11.40;99.90
52187;DHT22;38161;53.020;6.598;2023-11-19T13:50:52;11.40;99.90
52187;DHT22;38161;53.020;6.598;2023-11-19T13:53:18;11.40;99.90
52187;DHT22;38161;53.020;6.598;2023-11-19T13:55:44;11.30;99.90
52187;DHT22;38161;53.020;6.598;2023-11-19T13:58:11;11.30;99.90
52187;DHT22;38161;53.020;6.598;2023-11-19T14:00:37;11.30;99.90
52187;DHT22;38161;53.020;6.598;2023-11-19T14:03:04;11.30;99.90
52187;DHT22;38161;53.020;6.598;2023-11-19T14:05:31;11.30;99.90
52187;DHT22;38161;53.020;6.598;2023-11-19T14:07:57;11.20;99.90
52187;DHT22;38161;53.020;6.598;2023-11-19T14:10:23;11.20;99.90
52187;DHT22;38161;53.020;6.598;2023-11-19T14:12:49;11.20;99.90
52187;DHT22;38161;53.020;6.598;2023-11-19T14:15:17;11.20;99.90
52187;DHT22;38161;53.020;6.598;2023-11-19T14:17:44;11.20;99.90
52187;DHT22;38161;53.020;6.598;2023-11-19T14:20:10;11.20;99.90
52187;DHT22;38161;53.020;6.598;2023-11-19T14:22:43;11.20;99.90
52187;DHT22;38161;53.020;6.598;2023-11-19T14:25:10;11.20;99.90
52187;DHT22;38161;53.020;6.598;2023-11-19T14:27:37;11.20;99.90
52187;DHT22;38161;53.020;6.598;2023-11-19T14:30:05;11.20;99.90
52187;DHT22;38161;53.020;6.598;2023-11-19T14:32:31;11.20;99.90
52187;DHT22;38161;53.020;6.598;2023-11-19T14:34:57;11.20;99.90
52187;DHT22;38161;53.020;6.598;2023-11-19T14:37:23;11.20;99.90
52187;DHT22;38161;53.020;6.598;2023-11-19T14:39:49;11.20;99.90
52187;DHT22;38161;53.020;6.598;2023-11-19T14:42:17;11.20;99.90
52187;DHT22;38161;53.020;6.598;2023-11-19T14:44:43;11.10;99.90
52187;DHT22;38161;53.020;6.598;2023-11-19T14:47:09;11.10;99.90
52187;DHT22;38161;53.020;6.598;2023-11-19T14:49:36;11.10;99.90
52187;DHT22;38161;53.020;6.598;2023-11-19T14:52:04;11.10;99.90
52187;DHT22;38161;53.020;6.598;2023-11-19T14:54:30;11.10;99.90
52187;DHT22;38161;53.020;6.598;2023-11-19T14:56:56;11.10;99.90
52187;DHT22;38161;53.020;6.598;2023-11-19T14:59:25;11.10;99.90
52187;DHT22;38161;53.020;6.598;2023-11-19T15:01:51;11.10;99.90
52187;DHT22;38161;53.020;6.598;2023-11-19T15:04:17;11.10;99.90
52187;DHT22;38161;53.020;6.598;2023-11-19T15:06:43;11.10;99.90
52187;DHT22;38161;53.020;6.598;2023-11-19T15:09:09;11.10;99.90
52187;DHT22;38161;53.020;6.598;2023-11-19T15:11:37;11.10;99.90
52187;DHT22;38161;53.020;6.598;2023-11-19T15:14:03;11.10;99.90
52187;DHT22;38161;53.020;6.598;2023-11-19T15:16:29;11.10;99.90
52187;DHT22;38161;53.020;6.598;2023-11-19T15:19:00;11.00;99.90
52187;DHT22;38161;53.020;6.598;2023-11-19T15:21:29;11.00;99.90
52187;DHT22;38161;53.020;6.598;2023-11-19T15:23:58;11.00;99.90
52187;DHT22;38161;53.020;6.598;2023-11-19T15:26:24;11.00;99.90
52187;DHT22;38161;53.020;6.598;2023-11-19T15:28:50;11.00;99.90
52187;DHT22;38161;53.020;6.598;2023-11-19T15:31:16;11.00;99.90
52187;DHT22;38161;53.020;6.598;2023-11-19T15:33:42;11.00;99.90
52187;DHT22;38161;53.020;6.598;2023-11-19T15:36:08;11.00;99.90
52187;DHT22;38161;53.020;6.598;2023-11-19T15:38:35;11.00;99.90
52187;DHT22;38161;53.020;6.598;2023-11-19T15:41:01;10.90;99.90
52187;DHT22;38161;53.020;6.598;2023-11-19T15:43:28;10.90;99.90
52187;DHT22;38161;53.020;6.598;2023-11-19T15:45:55;10.90;99.90
52187;DHT22;38161;53.020;6.598;2023-11-19T15:48:21;10.80;99.90
52187;DHT22;38161;53.020;6.598;2023-11-19T15:50:47;10.80;99.90
52187;DHT22;38161;53.020;6.598;2023-11-19T15:53:12;10.80;99.90
52187;DHT22;38161;53.020;6.598;2023-11-19T15:55:38;10.80;99.90
52187;DHT22;38161;53.020;6.598;2023-11-19T15:58:04;10.80;99.90